Time;durP1;ratioP1;P1;durP2;ratioP2;P2;SDS_P1;SDS_P2;PMS_P1;PMS_P2;Temp;Humidity;BMP_temperature;BMP_pressure;BME280_temperature;BME280_humidity;BME280_pressure;Samples;Min_cycle;Max_cycle;Signal;HPM_P1;HPM_P2
2022/08/13 00:00:23;;;;;;;16.50;11.70;;;;;;;17.58;71.11;98846.29;433546;1269;111231;-39
2022/08/13 00:10:42;;;;;;;13.00;9.90;;;;;;;17.62;71.56;98848.15;433326;1270;108896;-40
2022/08/13 00:31:05;;;;;;;10.90;9.80;;;;;;;17.86;72.32;98831.49;433564;1269;108550;-41
2022/08/13 00:51:58;;;;;;;10.30;9.20;;;;;;;18.01;72.78;98807.86;434384;1263;111136;-40
2022/08/13 01:12:13;;;;;;;13.50;9.90;;;;;;;18.06;73.40;98785.84;435099;1255;96618;-40
2022/08/13 01:22:25;;;;;;;11.90;9.80;;;;;;;18.08;73.87;98770.48;434499;1264;108906;-40
2022/08/13 01:32:40;;;;;;;16.90;11.40;;;;;;;18.04;74.58;98761.28;433925;1264;97884;-41
2022/08/13 01:43:03;;;;;;;13.80;10.20;;;;;;;18.05;75.19;98747.74;434159;1264;111073;-40
2022/08/13 01:53:29;;;;;;;10.50;9.20;;;;;;;18.10;75.67;98735.23;434482;1264;108704;-41
2022/08/13 02:03:48;;;;;;;8.20;6.60;;;;;;;18.16;75.60;98734.67;434473;1264;98187;-41
2022/08/13 02:13:59;;;;;;;9.20;7.50;;;;;;;18.13;76.06;98732.28;434425;1264;108674;-41
2022/08/13 02:24:08;;;;;;;8.20;7.50;;;;;;;18.11;76.23;98730.27;434294;1264;98476;-41
2022/08/13 02:34:17;;;;;;;10.30;8.60;;;;;;;18.03;76.53;98724.05;434534;1264;111038;-41
2022/08/13 02:44:27;;;;;;;9.60;8.50;;;;;;;18.01;77.05;98715.60;434699;1264;108764;-41
2022/08/13 02:54:39;;;;;;;9.50;8.60;;;;;;;18.05;76.95;98718.90;434442;1264;97481;-41
2022/08/13 03:05:01;;;;;;;11.40;9.80;;;;;;;17.99;77.47;98716.31;434471;1263;108243;-40
2022/08/13 03:15:10;;;;;;;12.60;11.10;;;;;;;17.91;77.62;98715.21;434332;1263;97590;-41
2022/08/13 03:25:19;;;;;;;12.80;11.50;;;;;;;17.92;78.18;98718.70;434291;1264;111053;-41
2022/08/13 03:35:28;;;;;;;12.40;11.20;;;;;;;17.83;78.83;98717.89;434263;1264;108647;-42
2022/08/13 03:45:50;;;;;;;12.60;11.30;;;;;;;17.89;79.15;98717.27;434307;1264;97472;-41
2022/08/13 03:55:58;;;;;;;14.50;12.90;;;;;;;17.95;79.14;98711.71;434340;1263;108813;-42
2022/08/13 04:16:15;;;;;;;15.70;12.60;;;;;;;18.02;79.33;98699.98;433961;1264;110658;-40
2022/08/13 04:26:24;;;;;;;15.40;13.80;;;;;;;18.01;79.54;98702.13;434114;1263;108826;-40
2022/08/13 04:36:38;;;;;;;15.30;13.70;;;;;;;18.00;79.50;98701.59;434302;1263;97909;-42
2022/08/13 04:46:46;;;;;;;14.10;12.70;;;;;;;18.01;79.88;98703.57;434373;1264;108853;-41
2022/08/13 04:56:53;;;;;;;14.60;13.00;;;;;;;17.99;80.00;98706.61;434186;1264;98287;-41
2022/08/13 05:07:01;;;;;;;;;;;;;;;18.01;80.27;98703.95;434173;1263;111119;-41
2022/08/13 05:17:09;;;;;;;19.00;15.50;;;;;;;18.02;80.64;98702.81;434331;1264;108863;-41
2022/08/13 05:27:20;;;;;;;16.60;14.30;;;;;;;18.03;80.63;98702.27;433998;1264;97945;-42
2022/08/13 05:37:28;;;;;;;18.10;15.40;;;;;;;18.06;80.75;98699.10;434149;1264;108747;-41
2022/08/13 05:47:55;;;;;;;24.70;18.60;;;;;;;18.07;81.39;98696.79;434162;1264;98457;-41
2022/08/13 06:08:10;;;;;;;23.00;16.70;;;;;;;18.09;82.51;98705.17;434302;1263;108863;-41
2022/08/13 06:18:38;;;;;;;24.10;15.20;;;;;;;18.12;82.87;98700.39;434294;1264;98573;-42
2022/08/13 06:29:01;;;;;;;18.20;14.30;;;;;;;18.13;83.56;98697.86;433845;1263;108156;-42
2022/08/13 06:39:17;;;;;;;;;;;;;;;18.19;83.97;98697.45;434054;1263;98003;-41
2022/08/13 06:49:25;;;;;;;15.00;11.80;;;;;;;18.22;84.35;98695.35;434232;1263;111056;-41
2022/08/13 06:59:57;;;;;;;17.40;12.70;;;;;;;18.33;84.83;98687.95;434136;1263;109615;-41
2022/08/13 07:10:25;;;;;;;15.60;12.40;;;;;;;18.59;84.88;98687.50;434237;1264;97487;-41
2022/08/13 07:20:33;;;;;;;20.30;14.80;;;;;;;18.63;85.76;98685.27;433969;1264;109431;-42
2022/08/13 07:30:47;;;;;;;20.60;16.00;;;;;;;18.73;85.53;98687.51;434560;1263;97885;-40
2022/08/13 07:40:58;;;;;;;20.60;15.00;;;;;;;18.93;85.55;98688.02;434080;1263;111112;-40
2022/08/13 07:51:06;;;;;;;21.10;14.40;;;;;;;19.13;86.03;98687.61;434034;1264;108276;-40
2022/08/13 08:01:18;;;;;;;19.80;15.60;;;;;;;19.26;85.94;98687.86;434363;1263;96660;-40
2022/08/13 08:21:59;;;;;;;17.60;12.80;;;;;;;19.35;86.00;98695.47;434148;1264;97767;-40
2022/08/13 08:32:27;;;;;;;15.00;11.90;;;;;;;19.35;85.78;98698.79;434146;1263;111198;-40
2022/08/13 08:42:43;;;;;;;17.40;12.10;;;;;;;19.62;85.63;98694.96;434116;1266;108385;-40
2022/08/13 08:53:20;;;;;;;16.40;14.00;;;;;;;20.07;85.32;98693.23;434037;1264;98241;-40
2022/08/13 09:14:03;;;;;;;16.00;12.90;;;;;;;20.22;84.77;98712.81;434241;1264;97894;-40
2022/08/13 09:24:10;;;;;;;18.10;14.00;;;;;;;20.29;84.67;98701.48;434650;1264;111030;-41
2022/08/13 09:44:42;;;;;;;15.40;13.80;;;;;;;20.84;84.28;98678.71;433961;1264;97908;-40
2022/08/13 09:54:51;;;;;;;;;;;;;;;21.15;83.88;98672.45;434014;1263;108291;-40
2022/08/13 10:04:58;;;;;;;16.80;14.80;;;;;;;21.48;83.36;98670.62;433077;1264;1599022;-40
2022/08/13 10:25:30;;;;;;;15.70;13.20;;;;;;;21.94;82.13;98639.29;434022;1264;108892;-41
2022/08/13 10:35:58;;;;;;;16.40;14.40;;;;;;;22.23;81.59;98625.54;434126;1263;97909;-41
2022/08/13 10:46:16;;;;;;;16.50;14.70;;;;;;;22.27;80.75;98609.13;433566;1264;108801;-41
2022/08/13 10:56:34;;;;;;;16.20;14.50;;;;;;;23.22;79.70;98594.37;434216;1264;97894;-41
2022/08/13 11:06:42;;;;;;;16.70;15.00;;;;;;;23.03;77.69;98585.67;434248;1264;109741;-39
2022/08/13 11:16:58;;;;;;;14.10;12.80;;;;;;;22.97;77.32;98578.89;434110;1263;108956;-38
2022/08/13 11:27:10;;;;;;;15.20;13.80;;;;;;;23.36;76.29;98561.01;434166;1264;97461;-40
2022/08/13 11:37:16;;;;;;;;;;;;;;;23.71;75.55;98550.33;434147;1263;110440;-40
2022/08/13 11:47:21;;;;;;;16.50;12.60;;;;;;;23.92;74.27;98556.11;434140;1264;109504;-40
2022/08/13 11:57:38;;;;;;;16.30;13.00;;;;;;;24.49;74.12;98571.46;434535;1264;97878;-40
2022/08/13 12:07:54;;;;;;;14.10;12.70;;;;;;;24.35;72.72;98570.94;434263;1264;111012;-40
2022/08/13 12:18:06;;;;;;;17.10;10.90;;;;;;;24.21;72.35;98571.56;434146;1264;108780;-40
2022/08/13 12:28:24;;;;;;;12.30;11.20;;;;;;;24.47;71.84;98583.91;434231;1263;97538;-40
2022/08/13 12:38:36;;;;;;;18.00;12.90;;;;;;;24.23;70.90;98587.80;434048;1263;111024;-41
2022/08/13 12:58:47;;;;;;;13.20;12.00;;;;;;;23.83;70.57;98579.77;434047;1264;97631;-41
2022/08/13 13:08:57;;;;;;;12.30;11.10;;;;;;;23.86;70.90;98573.58;434460;1264;110882;-40
2022/08/13 13:19:11;;;;;;;13.80;12.40;;;;;;;23.89;70.87;98567.77;434197;1264;108746;-40
2022/08/13 13:29:22;;;;;;;15.70;13.90;;;;;;;23.80;70.75;98561.90;434081;1264;98140;-40
2022/08/13 13:39:28;;;;;;;;;;;;;;;23.78;71.02;98544.27;434315;1264;111421;-41
2022/08/13 13:49:49;;;;;;;16.10;14.60;;;;;;;23.62;71.10;98539.31;433952;1264;106935;-39
2022/08/13 13:59:55;;;;;;;;;;;;;;;23.52;71.42;98539.25;434068;1264;98140;-39
2022/08/13 14:10:01;;;;;;;16.60;15.00;;;;;;;23.56;71.66;98539.05;433994;1264;108238;-39
2022/08/13 14:20:13;;;;;;;14.90;13.40;;;;;;;23.51;71.57;98535.25;434266;1264;98207;-39
2022/08/13 14:30:41;;;;;;;19.30;14.20;;;;;;;23.57;71.63;98532.06;434365;1264;111262;-40
2022/08/13 14:40:48;;;;;;;16.50;14.80;;;;;;;23.40;71.57;98527.11;434385;1264;108820;-39
2022/08/13 14:51:05;;;;;;;15.70;13.80;;;;;;;23.43;71.19;98529.17;434249;1264;97795;-40
2022/08/13 15:01:27;;;;;;;16.80;14.70;;;;;;;23.61;70.19;98533.21;434298;1263;108911;-42
2022/08/13 15:11:36;;;;;;;16.50;13.60;;;;;;;23.73;69.25;98537.13;434444;1264;97894;-39
2022/08/13 15:21:48;;;;;;;14.20;12.90;;;;;;;23.58;68.89;98529.11;434089;1264;111035;-41
2022/08/13 15:31:55;;;;;;;16.40;14.80;;;;;;;23.46;69.17;98521.95;433866;1264;106934;-42
2022/08/13 16:02:24;;;;;;;13.30;11.90;;;;;;;23.32;69.36;98499.55;434226;1264;108769;-40
2022/08/13 16:12:56;;;;;;;13.70;12.00;;;;;;;23.20;69.53;98495.83;434313;1264;97523;-39
2022/08/13 16:23:11;;;;;;;13.80;12.40;;;;;;;23.00;69.96;98495.06;434133;1264;108721;-39
2022/08/13 16:33:23;;;;;;;15.80;12.70;;;;;;;22.86;70.10;98494.64;434031;1264;97472;-39
2022/08/13 16:43:38;;;;;;;15.10;13.50;;;;;;;22.48;70.75;98497.65;434002;1264;111010;-41
2022/08/13 16:54:06;;;;;;;16.80;13.50;;;;;;;21.96;71.80;98499.63;434424;1264;108917;-41
2022/08/13 17:15:20;;;;;;;19.40;15.10;;;;;;;21.51;73.64;98477.98;434332;1264;108324;-41
2022/08/13 17:25:30;;;;;;;16.40;14.30;;;;;;;21.44;74.13;98483.10;434357;1265;96581;-42
2022/08/13 17:35:39;;;;;;;14.60;13.00;;;;;;;21.25;74.83;98481.04;434658;1265;111091;-42
2022/08/13 17:45:47;;;;;;;;;;;;;;;21.16;75.15;98498.48;434238;1265;108782;-42
2022/08/13 17:55:56;;;;;;;18.20;13.50;;;;;;;21.03;75.31;98504.67;434472;1264;97903;-41
2022/08/13 18:06:02;;;;;;;;;;;;;;;20.92;75.57;98510.66;434288;1265;108721;-41
2022/08/13 18:16:29;;;;;;;17.80;12.30;;;;;;;20.82;75.61;98525.31;434232;1264;96661;-40
2022/08/13 18:37:04;;;;;;;16.10;13.60;;;;;;;20.68;75.88;98543.33;434349;1264;108762;-41
2022/08/13 18:47:13;;;;;;;18.60;13.30;;;;;;;20.74;76.13;98545.70;434409;1265;97505;-41
2022/08/13 18:57:28;;;;;;;17.60;13.00;;;;;;;20.83;76.39;98545.17;434275;1264;108650;-40
2022/08/13 19:07:35;;;;;;;18.60;14.80;;;;;;;20.74;76.39;98541.84;434248;1265;97903;-40
2022/08/13 19:17:46;;;;;;;15.90;13.00;;;;;;;20.56;76.23;98546.43;434207;1264;111133;-43
2022/08/13 19:38:10;;;;;;;;;;;;;;;19.95;78.22;98566.23;434205;1264;98200;-40
2022/08/13 19:48:18;;;;;;;13.40;11.00;;;;;;;19.74;78.14;98548.46;434325;1264;108826;-41
2022/08/13 19:58:45;;;;;;;15.70;10.80;;;;;;;19.66;78.13;98534.83;434233;1264;99303;-41
2022/08/13 20:08:53;;;;;;;15.00;10.90;;;;;;;19.59;78.30;98531.62;434620;1264;111046;-39
2022/08/13 20:19:00;;;;;;;16.80;10.70;;;;;;;19.42;78.67;98523.63;434484;1264;108815;-41
2022/08/13 20:29:09;;;;;;;15.70;12.20;;;;;;;19.30;78.65;98505.07;434391;1264;97886;-40
2022/08/13 20:39:36;;;;;;;12.40;10.50;;;;;;;19.30;79.02;98479.22;434459;1264;108694;-41
2022/08/13 20:49:53;;;;;;;12.70;11.20;;;;;;;19.22;79.09;98475.02;434166;1264;96632;-41
2022/08/13 21:00:03;;;;;;;15.10;10.60;;;;;;;19.19;79.35;98477.36;434259;1264;111743;-42
2022/08/13 21:10:31;;;;;;;12.60;10.00;;;;;;;19.07;79.40;98463.84;434081;1264;108111;-41
2022/08/13 21:20:48;;;;;;;11.00;9.90;;;;;;;18.96;79.63;98458.80;434178;1264;97889;-41
2022/08/13 21:31:05;;;;;;;12.00;9.70;;;;;;;18.88;79.73;98460.07;434195;1264;108918;-40
2022/08/13 21:41:18;;;;;;;11.70;9.10;;;;;;;18.80;80.30;98462.85;433987;1264;98209;-40
2022/08/13 21:51:26;;;;;;;11.90;9.80;;;;;;;18.86;80.38;98451.47;434359;1264;111089;-40
2022/08/13 22:01:42;;;;;;;11.30;9.60;;;;;;;18.86;80.34;98439.91;433021;1264;1586170;-41
2022/08/13 22:11:53;;;;;;;11.90;10.60;;;;;;;18.89;80.54;98421.42;434376;1264;97490;-40
2022/08/13 22:22:00;;;;;;;16.00;11.10;;;;;;;18.91;80.63;98414.48;434266;1263;109232;-41
2022/08/13 22:32:07;;;;;;;12.60;10.50;;;;;;;18.84;80.62;98408.15;434262;1263;97550;-41
2022/08/13 22:42:17;;;;;;;15.90;10.70;;;;;;;18.84;80.78;98396.36;434034;1264;111833;-41
2022/08/13 22:52:28;;;;;;;12.00;10.50;;;;;;;18.76;80.68;98393.55;433924;1264;108836;-41
2022/08/13 23:02:38;;;;;;;12.60;10.60;;;;;;;18.74;80.79;98392.62;434303;1264;97397;-41
2022/08/13 23:12:45;;;;;;;15.50;10.80;;;;;;;18.67;80.99;98383.79;434174;1264;108802;-41
2022/08/13 23:22:54;;;;;;;13.90;11.40;;;;;;;18.60;81.08;98378.67;434099;1263;97461;-40
2022/08/13 23:33:02;;;;;;;13.30;10.90;;;;;;;18.57;81.19;98366.11;434270;1264;109972;-41
2022/08/13 23:53:21;;;;;;;10.70;9.70;;;;;;;18.59;81.52;98346.80;434106;1262;98174;-41
